Time;durP1;ratioP1;P1;durP2;ratioP2;P2;SDS_P1;SDS_P2;PMS_P1;PMS_P2;Temp;Humidity;BMP_temperature;BMP_pressure;BME280_temperature;BME280_humidity;BME280_pressure;Samples;Min_cycle;Max_cycle;Signal;HPM_P1;HPM_P2
2022/07/31 00:02:43;;;;;;;9.90;4.37;;;;;;;17.09;60.76;100733.37;1704355;84;21228;-56
2022/07/31 00:05:50;;;;;;;9.55;3.87;;;;;;;17.09;60.90;100736.66;1704421;84;21372;-56
2022/07/31 00:08:57;;;;;;;6.80;3.75;;;;;;;17.10;61.03;100730.91;1704300;84;21231;-56
2022/07/31 00:12:04;;;;;;;12.45;3.72;;;;;;;17.12;61.13;100730.18;1703903;84;21239;-56
2022/07/31 00:15:14;;;;;;;12.18;3.85;;;;;;;17.11;61.08;100727.63;1704382;84;21204;-56
2022/07/31 00:18:20;;;;;;;8.53;4.00;;;;;;;17.06;61.15;100737.08;1686314;82;21219;-56
2022/07/31 00:21:26;;;;;;;8.55;4.00;;;;;;;17.05;61.25;100734.83;1704347;84;21239;-56
2022/07/31 00:24:32;;;;;;;8.93;3.95;;;;;;;17.03;61.28;100741.65;1662772;86;21208;-55
2022/07/31 00:27:38;;;;;;;7.53;3.87;;;;;;;16.97;61.30;100735.55;1641179;87;21289;-55
2022/07/31 00:30:43;;;;;;;5.55;4.15;;;;;;;16.96;61.42;100735.23;1662963;86;21209;-56
2022/07/31 00:33:50;;;;;;;8.48;4.25;;;;;;;16.96;61.58;100735.23;1662737;86;21260;-55
2022/07/31 00:36:56;;;;;;;10.20;4.60;;;;;;;16.94;61.60;100737.34;1641210;87;21411;-56
2022/07/31 00:40:01;;;;;;;7.80;4.30;;;;;;;16.92;61.63;100736.72;1655915;86;21197;-57
2022/07/31 00:43:08;;;;;;;8.35;4.20;;;;;;;16.88;61.68;100731.27;1657207;86;21366;-55
2022/07/31 00:46:15;;;;;;;7.85;3.85;;;;;;;16.87;61.82;100737.32;1696716;84;21251;-57
2022/07/31 00:49:24;;;;;;;7.53;3.85;;;;;;;16.88;61.97;100735.42;1655533;86;21201;-56
2022/07/31 00:52:31;;;;;;;9.75;3.67;;;;;;;16.90;62.06;100729.16;1653957;87;21246;-56
2022/07/31 00:55:37;;;;;;;6.80;3.83;;;;;;;16.90;62.11;100730.02;1675755;85;21607;-56
2022/07/31 00:58:45;;;;;;;10.53;4.00;;;;;;;16.91;62.17;100726.70;1696998;84;21189;-56
2022/07/31 01:01:51;;;;;;;8.23;4.15;;;;;;;16.90;62.18;100731.92;1703716;84;21259;-56
2022/07/31 01:04:56;;;;;;;9.20;3.95;;;;;;;16.88;62.25;100722.97;1656225;86;21292;-57
2022/07/31 01:08:04;;;;;;;6.72;4.15;;;;;;;16.88;62.28;100729.89;1663055;86;21244;-56
2022/07/31 01:11:34;;;;;;;10.32;4.17;;;;;;;16.86;62.34;100726.47;1657434;84;21207;-57
2022/07/31 01:14:47;;;;;;;8.45;4.08;;;;;;;16.83;62.35;100727.75;1657124;85;21207;-56
2022/07/31 01:17:56;;;;;;;6.95;3.70;;;;;;;16.81;62.43;100731.80;1704388;83;21271;-55
2022/07/31 01:21:05;;;;;;;5.58;3.85;;;;;;;16.81;62.55;100735.95;1657209;86;21189;-56
2022/07/31 01:24:35;;;;;;;8.28;4.33;;;;;;;16.80;62.60;100728.69;1656277;86;21236;-54
2022/07/31 01:28:12;;;;;;;10.05;3.92;;;;;;;16.80;62.68;100730.07;1656283;86;21224;-56
2022/07/31 01:31:23;;;;;;;7.53;3.75;;;;;;;16.77;62.76;100728.59;1658108;86;21265;-56
2022/07/31 01:34:53;;;;;;;7.92;3.90;;;;;;;16.78;62.83;100729.41;1693479;83;21462;-55
2022/07/31 01:38:24;;;;;;;7.45;4.17;;;;;;;16.75;62.89;100718.25;1691531;83;21239;-56
2022/07/31 01:41:35;;;;;;;7.40;4.30;;;;;;;16.76;62.98;100724.65;1699906;84;21195;-56
2022/07/31 01:44:51;;;;;;;7.22;3.98;;;;;;;16.74;63.03;100720.71;1690814;83;21192;-56
2022/07/31 01:47:57;;;;;;;8.30;4.35;;;;;;;16.73;63.07;100712.63;1700888;83;21228;-56
2022/07/31 01:51:03;;;;;;;6.33;4.03;;;;;;;16.72;63.10;100721.95;1704316;84;21211;-56
2022/07/31 01:54:10;;;;;;;6.70;4.22;;;;;;;16.70;63.15;100714.42;1704304;84;21232;-56
2022/07/31 01:57:16;;;;;;;9.83;4.55;;;;;;;16.69;63.19;100708.55;1705325;83;21287;-55
2022/07/31 02:00:23;;;;;;;11.05;4.80;;;;;;;16.65;63.16;100704.52;1657712;84;21271;-55
2022/07/31 02:03:32;;;;;;;8.58;4.22;;;;;;;16.63;63.30;100700.58;1704771;83;21224;-56
2022/07/31 02:06:40;;;;;;;5.83;4.28;;;;;;;16.62;63.36;100697.47;1657110;86;21292;-56
2022/07/31 02:09:48;;;;;;;8.58;4.12;;;;;;;16.61;63.41;100692.15;1660746;86;21204;-56
2022/07/31 02:12:56;;;;;;;9.78;3.70;;;;;;;16.60;63.49;100691.31;1631636;87;21247;-56
2022/07/31 02:16:04;;;;;;;8.58;3.72;;;;;;;16.58;63.50;100690.66;1704601;83;21200;-57
2022/07/31 02:19:10;;;;;;;7.12;3.95;;;;;;;16.54;63.50;100688.52;1656067;86;21280;-55
2022/07/31 02:22:17;;;;;;;8.83;4.12;;;;;;;16.53;63.55;100684.03;1629803;87;21263;-57
2022/07/31 02:25:27;;;;;;;5.67;3.67;;;;;;;16.52;63.62;100694.78;1667817;85;21226;-56
2022/07/31 02:28:32;;;;;;;8.08;4.17;;;;;;;16.50;63.66;100699.66;1683971;85;21241;-57
2022/07/31 02:31:39;;;;;;;5.62;3.80;;;;;;;16.50;63.73;100702.41;1674571;85;21360;-57
2022/07/31 02:34:46;;;;;;;6.62;3.85;;;;;;;16.50;63.78;100701.03;1683331;85;21206;-56
2022/07/31 02:37:55;;;;;;;10.55;4.37;;;;;;;16.47;63.71;100691.78;1671802;85;21266;-57
2022/07/31 02:41:05;;;;;;;7.67;4.20;;;;;;;16.43;63.72;100692.16;1675458;84;21222;-55
2022/07/31 02:44:18;;;;;;;6.17;3.77;;;;;;;16.40;63.79;100689.81;1683671;84;21227;-57
2022/07/31 02:47:27;;;;;;;6.80;3.77;;;;;;;16.40;63.84;100691.71;1656447;85;21238;-56
2022/07/31 02:50:34;;;;;;;9.25;4.28;;;;;;;16.41;63.93;100688.74;1646450;85;21227;-56
2022/07/31 02:53:40;;;;;;;9.38;4.08;;;;;;;16.42;64.01;100690.47;1656634;85;21242;-56
2022/07/31 02:56:47;;;;;;;8.28;3.77;;;;;;;16.47;64.14;100689.02;1649552;85;21244;-56
2022/07/31 02:59:54;;;;;;;10.23;3.83;;;;;;;16.53;64.24;100692.33;1667906;85;21222;-56
2022/07/31 03:03:02;;;;;;;6.10;4.20;;;;;;;16.57;64.30;100697.78;1664203;84;21309;-57
2022/07/31 03:06:08;;;;;;;10.32;4.80;;;;;;;16.61;64.31;100699.92;1674149;85;21277;-55
2022/07/31 03:09:14;;;;;;;9.00;4.65;;;;;;;16.63;64.28;100690.03;1674434;85;21527;-55
2022/07/31 03:12:24;;;;;;;10.32;5.20;;;;;;;16.65;64.30;100690.69;1672927;85;21246;-55
2022/07/31 03:15:31;;;;;;;10.58;4.90;;;;;;;16.69;64.38;100700.26;1683846;85;21222;-56
2022/07/31 03:18:38;;;;;;;9.00;4.67;;;;;;;16.73;64.46;100696.03;1678841;85;21286;-56
2022/07/31 03:21:46;;;;;;;11.48;4.60;;;;;;;16.80;64.52;100699.66;1691074;82;21240;-55
2022/07/31 03:24:56;;;;;;;10.10;5.00;;;;;;;16.84;64.53;100698.20;1640875;86;21390;-55
2022/07/31 03:28:02;;;;;;;7.67;4.65;;;;;;;16.89;64.56;100693.72;1668598;84;21283;-56
2022/07/31 03:31:07;;;;;;;6.15;4.00;;;;;;;16.96;64.59;100706.19;1681012;84;21209;-56
2022/07/31 03:34:16;;;;;;;8.80;4.00;;;;;;;17.02;64.67;100699.81;1637518;86;21216;-56
2022/07/31 03:37:24;;;;;;;8.88;4.35;;;;;;;17.07;64.69;100694.51;1663475;84;21249;-56
2022/07/31 03:40:31;;;;;;;8.63;4.62;;;;;;;17.16;64.78;100696.86;1685070;84;21225;-57
2022/07/31 03:43:38;;;;;;;8.55;4.15;;;;;;;17.24;64.78;100697.19;1662667;84;21257;-57
2022/07/31 03:46:49;;;;;;;5.75;3.95;;;;;;;17.32;64.81;100702.52;1684743;84;21296;-55
2022/07/31 03:49:55;;;;;;;10.20;5.05;;;;;;;17.38;64.82;100698.89;1665623;84;21374;-57
2022/07/31 03:53:02;;;;;;;8.33;4.00;;;;;;;17.44;64.85;100704.99;1669360;84;21228;-56
2022/07/31 03:56:13;;;;;;;7.33;4.22;;;;;;;17.51;64.88;100708.63;1668720;85;21270;-56
2022/07/31 03:59:21;;;;;;;8.05;4.40;;;;;;;17.57;64.92;100704.48;1703640;84;21208;-56
2022/07/31 04:02:28;;;;;;;9.40;4.00;;;;;;;17.64;65.00;100695.66;1703981;84;21757;-56
2022/07/31 04:05:47;;;;;;;8.80;4.33;;;;;;;17.75;65.08;100690.84;1703540;84;21200;-55
2022/07/31 04:08:53;;;;;;;8.33;4.05;;;;;;;17.88;65.12;100694.13;1703105;84;21215;-55
2022/07/31 04:12:01;;;;;;;7.62;4.15;;;;;;;17.98;65.12;100687.63;1702473;84;22073;-55
2022/07/31 04:15:07;;;;;;;9.05;4.35;;;;;;;18.07;65.15;100683.55;1703579;84;21191;-54
2022/07/31 04:18:13;;;;;;;6.67;4.22;;;;;;;18.18;65.16;100689.80;1703723;84;21255;-54
2022/07/31 04:21:19;;;;;;;7.92;4.28;;;;;;;18.27;65.17;100692.64;1703508;84;21262;-54
2022/07/31 04:24:26;;;;;;;9.18;4.53;;;;;;;18.39;65.21;100686.79;1666832;85;21223;-55
2022/07/31 04:27:50;;;;;;;13.03;6.85;;;;;;;18.49;65.24;100684.94;1667110;86;21218;-56
2022/07/31 04:30:55;;;;;;;10.58;5.92;;;;;;;18.61;65.23;100691.48;1662601;85;21767;-56
2022/07/31 04:34:04;;;;;;;9.33;4.28;;;;;;;18.71;65.23;100689.92;1664475;84;21238;-56
2022/07/31 04:37:11;;;;;;;8.70;4.90;;;;;;;18.83;65.27;100692.86;1650391;85;21262;-56
2022/07/31 04:40:18;;;;;;;7.05;4.62;;;;;;;18.94;65.30;100693.55;1683349;85;21273;-56
2022/07/31 04:43:24;;;;;;;6.60;4.17;;;;;;;19.04;65.30;100695.31;1688719;85;21238;-56
2022/07/31 04:46:33;;;;;;;6.67;4.15;;;;;;;19.17;65.31;100702.17;1688837;85;21210;-56
2022/07/31 04:49:39;;;;;;;7.37;4.00;;;;;;;19.28;65.32;100698.14;1674219;85;21770;-56
2022/07/31 04:52:49;;;;;;;7.05;4.35;;;;;;;19.40;65.36;100698.28;1668475;85;21266;-56
2022/07/31 04:59:27;;;;;;;8.35;4.05;;;;;;;19.65;65.36;100694.97;1644718;85;21250;-56
2022/07/31 05:02:34;;;;;;;6.47;4.12;;;;;;;19.78;65.33;100692.61;1669901;85;21779;-53
2022/07/31 05:05:46;;;;;;;9.50;4.85;;;;;;;19.91;65.35;100688.31;1682716;85;21393;-53
2022/07/31 05:08:54;;;;;;;7.42;4.22;;;;;;;20.01;65.34;100688.66;1681928;85;21198;-54
2022/07/31 05:12:01;;;;;;;10.80;4.70;;;;;;;20.14;65.38;100682.43;1672929;85;21260;-55
2022/07/31 05:15:09;;;;;;;6.47;4.20;;;;;;;20.26;65.37;100686.70;1663483;84;21270;-54
2022/07/31 05:18:15;;;;;;;5.25;3.98;;;;;;;20.35;65.37;100675.03;1660739;85;21286;-54
2022/07/31 05:21:40;;;;;;;7.12;3.77;;;;;;;20.47;65.36;100677.33;1651824;86;21279;-54
2022/07/31 05:24:53;;;;;;;10.03;3.98;;;;;;;20.59;65.34;100665.75;1604921;86;21738;-54
2022/07/31 05:27:57;;;;;;;7.87;3.87;;;;;;;20.69;65.31;100665.19;1690137;84;21364;-55
2022/07/31 05:31:10;;;;;;;11.05;4.53;;;;;;;20.80;65.31;100673.57;1655665;86;21204;-54
2022/07/31 05:34:18;;;;;;;7.58;3.25;;;;;;;20.92;65.36;100668.59;1655282;86;21209;-55
2022/07/31 05:37:26;;;;;;;8.43;4.17;;;;;;;21.06;65.35;100672.38;1654943;86;21241;-53
2022/07/31 05:40:33;;;;;;;7.15;3.95;;;;;;;21.17;65.29;100671.56;1655143;86;21333;-54
2022/07/31 05:43:55;;;;;;;9.75;3.90;;;;;;;21.27;65.32;100669.06;1655645;86;21754;-54
2022/07/31 05:47:04;;;;;;;6.75;3.60;;;;;;;21.41;65.32;100666.89;1655372;86;21280;-54
2022/07/31 05:50:13;;;;;;;6.42;3.58;;;;;;;21.51;65.26;100674.98;1655575;86;21339;-54
2022/07/31 05:53:20;;;;;;;6.25;3.58;;;;;;;21.60;65.22;100659.61;1658893;85;21797;-53
2022/07/31 05:56:46;;;;;;;6.92;3.00;;;;;;;21.73;65.17;100666.35;1662618;86;21292;-53
2022/07/31 06:00:03;;;;;;;10.88;3.30;;;;;;;21.87;65.10;100664.19;1703452;84;21196;-53
2022/07/31 06:03:12;;;;;;;7.50;3.05;;;;;;;21.96;65.04;100658.00;1704724;83;21269;-55
2022/07/31 06:06:32;;;;;;;8.68;3.15;;;;;;;22.08;65.00;100654.69;1657464;84;21207;-54
2022/07/31 06:09:38;;;;;;;5.85;2.65;;;;;;;22.20;64.93;100659.69;1708815;83;21203;-55
2022/07/31 06:12:48;;;;;;;7.67;2.90;;;;;;;22.36;64.88;100654.46;1676308;84;21241;-53
2022/07/31 06:15:55;;;;;;;8.93;2.85;;;;;;;22.46;64.76;100658.84;1691096;84;21327;-54
2022/07/31 06:19:02;;;;;;;5.12;2.55;;;;;;;22.56;64.67;100653.52;1717411;83;21192;-53
2022/07/31 06:22:11;;;;;;;7.08;2.70;;;;;;;22.67;64.58;100652.63;1683551;84;21258;-54
2022/07/31 06:25:20;;;;;;;6.58;3.30;;;;;;;22.75;64.48;100653.09;1686321;82;21310;-55
2022/07/31 06:28:30;;;;;;;7.33;2.72;;;;;;;22.89;64.44;100652.23;1687643;84;21261;-55
2022/07/31 06:31:38;;;;;;;5.62;2.90;;;;;;;23.00;64.37;100649.94;1695015;84;21437;-55
2022/07/31 06:34:49;;;;;;;6.12;2.87;;;;;;;23.10;64.29;100649.57;1703840;84;21216;-53
2022/07/31 06:37:58;;;;;;;5.15;2.50;;;;;;;23.22;64.20;100650.91;1703891;84;21319;-54
2022/07/31 06:41:07;;;;;;;5.92;2.87;;;;;;;23.32;64.13;100639.96;1702042;84;21204;-54
2022/07/31 06:44:21;;;;;;;6.83;2.52;;;;;;;23.43;63.99;100637.09;1704016;84;21189;-54
2022/07/31 06:47:45;;;;;;;4.80;2.60;;;;;;;23.51;63.87;100637.22;1704006;83;21244;-54
2022/07/31 06:50:54;;;;;;;7.20;2.40;;;;;;;23.58;63.69;100639.27;1703821;84;21299;-55
2022/07/31 06:54:06;;;;;;;6.15;2.60;;;;;;;23.67;63.62;100631.32;1701563;83;21323;-55
2022/07/31 06:57:11;;;;;;;7.75;2.70;;;;;;;23.78;63.54;100628.98;1703600;84;21221;-55
2022/07/31 07:00:21;;;;;;;7.53;2.35;;;;;;;23.88;63.43;100629.97;1704607;82;21216;-55
2022/07/31 07:03:29;;;;;;;5.87;2.60;;;;;;;23.99;63.31;100631.02;1689087;82;21265;-54
2022/07/31 07:06:35;;;;;;;7.20;2.20;;;;;;;24.07;63.18;100627.21;1688400;84;21398;-54
2022/07/31 07:09:40;;;;;;;6.17;2.30;;;;;;;24.14;63.02;100622.84;1699554;83;21190;-54
2022/07/31 07:13:07;;;;;;;6.40;2.77;;;;;;;24.22;62.91;100626.05;1747936;82;21735;-54
2022/07/31 07:16:15;;;;;;;6.92;2.27;;;;;;;24.30;62.74;100623.34;1721169;82;21199;-55
2022/07/31 07:19:21;;;;;;;2.62;1.70;;;;;;;24.38;62.57;100623.75;1719984;82;21337;-55
2022/07/31 07:22:27;;;;;;;4.47;1.60;;;;;;;24.47;62.47;100624.97;1718833;82;21234;-54
2022/07/31 07:25:40;;;;;;;4.97;1.92;;;;;;;24.56;62.38;100624.80;1708312;82;21206;-54
2022/07/31 07:28:47;;;;;;;7.83;1.75;;;;;;;24.64;62.19;100616.52;1746344;82;21211;-54
2022/07/31 07:31:47;;;;;;;5.22;1.72;;;;;;;24.72;61.97;100614.11;1732201;82;21192;-53
2022/07/31 07:34:58;;;;;;;5.28;1.72;;;;;;;24.79;61.80;100608.30;1719111;82;21191;-54
2022/07/31 07:38:10;;;;;;;4.58;1.80;;;;;;;24.85;61.62;100613.70;1718563;83;21203;-54
2022/07/31 07:41:18;;;;;;;4.70;1.70;;;;;;;24.92;61.47;100620.50;1719187;83;21545;-54
2022/07/31 07:44:25;;;;;;;4.03;1.80;;;;;;;24.96;61.24;100618.84;1719690;83;21377;-53
2022/07/31 07:47:36;;;;;;;5.67;2.08;;;;;;;25.00;61.07;100612.48;1720112;83;21235;-52
2022/07/31 07:50:44;;;;;;;6.03;2.10;;;;;;;25.10;61.02;100615.08;1710464;83;21384;-54
2022/07/31 07:53:55;;;;;;;3.80;1.72;;;;;;;25.22;60.90;100619.95;1720190;83;21259;-55
2022/07/31 07:57:28;;;;;;;5.10;1.85;;;;;;;25.30;60.73;100613.86;1720294;83;21215;-55
2022/07/31 08:00:58;;;;;;;3.65;1.62;;;;;;;25.39;60.63;100613.14;1720511;83;21803;-54
2022/07/31 08:04:05;;;;;;;4.65;1.72;;;;;;;25.48;60.43;100605.92;1719676;83;21242;-54
2022/07/31 08:07:14;;;;;;;2.47;1.70;;;;;;;25.55;60.22;100612.16;1720279;83;21739;-54
2022/07/31 08:10:23;;;;;;;3.67;1.90;;;;;;;25.60;59.97;100598.73;1719840;83;21243;-55
2022/07/31 08:13:37;;;;;;;5.95;1.50;;;;;;;25.64;59.71;100599.90;1719020;83;21375;-54
2022/07/31 08:17:02;;;;;;;6.70;1.62;;;;;;;25.70;59.53;100598.81;1703341;83;21244;-51
2022/07/31 08:20:10;;;;;;;5.78;1.62;;;;;;;25.77;59.42;100591.00;1719204;83;21183;-50
2022/07/31 08:23:18;;;;;;;6.97;1.70;;;;;;;25.85;59.24;100590.48;1718841;83;21211;-50
2022/07/31 08:27:22;;;;;;;5.28;1.57;;;;;;;25.91;59.02;100600.66;1685723;84;21641;-51
2022/07/31 08:29:35;;;;;;;5.30;1.45;;;;;;;25.96;58.74;100593.64;1704364;83;21212;-52
2022/07/31 08:32:43;;;;;;;4.12;1.72;;;;;;;25.96;58.45;100588.89;1664999;85;21349;-50
2022/07/31 08:35:52;;;;;;;6.10;1.87;;;;;;;25.99;58.33;100584.71;1706397;83;21204;-50
2022/07/31 08:38:59;;;;;;;7.90;1.70;;;;;;;26.06;58.20;100585.33;1665207;85;21230;-53
2022/07/31 08:42:13;;;;;;;3.42;1.80;;;;;;;26.12;58.08;100578.62;1706341;84;21244;-55
2022/07/31 08:45:20;;;;;;;;;;;;;;;26.17;57.87;100580.91;1672746;85;21767;-53
2022/07/31 08:48:32;;;;;;;3.33;1.90;;;;;;;26.23;57.62;100574.73;1704217;83;20208;-54
2022/07/31 08:51:45;;;;;;;2.70;1.62;;;;;;;26.25;57.37;100573.92;1703789;83;21840;-55
2022/07/31 08:54:59;;;;;;;6.42;1.92;;;;;;;26.28;57.15;100561.59;1702463;84;21271;-56
2022/07/31 08:58:07;;;;;;;5.45;1.80;;;;;;;26.34;56.97;100568.91;1704126;84;21244;-55
2022/07/31 09:01:14;;;;;;;3.77;1.65;;;;;;;26.37;56.66;100563.28;1704066;84;21259;-55
2022/07/31 09:04:20;;;;;;;6.53;1.80;;;;;;;26.38;56.45;100557.43;1703836;84;21364;-55
2022/07/31 09:07:28;;;;;;;5.67;1.90;;;;;;;26.45;56.33;100554.33;1703549;84;21310;-52
2022/07/31 09:10:44;;;;;;;6.15;1.75;;;;;;;26.53;56.11;100551.58;1704115;84;21184;-55
2022/07/31 09:14:09;;;;;;;6.45;1.70;;;;;;;26.63;56.04;100551.58;1677645;85;21227;-54
2022/07/31 09:17:15;;;;;;;5.03;1.30;;;;;;;26.68;55.79;100553.89;1706678;83;21247;-52
2022/07/31 09:20:29;;;;;;;7.45;1.60;;;;;;;26.72;55.60;100543.77;1674206;85;21227;-55
2022/07/31 09:23:35;;;;;;;5.97;2.17;;;;;;;26.81;55.45;100541.27;1669903;85;21317;-54
2022/07/31 09:26:43;;;;;;;7.78;2.15;;;;;;;26.88;55.20;100542.69;1710808;83;21291;-55
2022/07/31 09:29:55;;;;;;;2.47;1.30;;;;;;;26.96;55.03;100540.73;1716679;83;21231;-54
2022/07/31 09:33:26;;;;;;;5.72;1.52;;;;;;;27.03;54.71;100539.91;1680809;85;21624;-54
2022/07/31 09:36:54;;;;;;;4.55;1.80;;;;;;;27.07;54.44;100531.18;1716582;83;21207;-54
2022/07/31 09:39:58;;;;;;;5.60;2.75;;;;;;;27.13;54.21;100527.24;1695093;84;21230;-54
2022/07/31 09:42:54;;;;;;;6.70;2.42;;;;;;;27.23;54.08;100528.66;1715532;83;21380;-53
2022/07/31 09:45:47;;;;;;;5.58;1.65;;;;;;;27.30;53.89;100529.27;1717256;83;21365;-56
2022/07/31 09:48:40;;;;;;;5.37;1.47;;;;;;;27.33;53.62;100527.29;1699921;83;21204;-53
2022/07/31 09:51:47;;;;;;;3.72;1.45;;;;;;;27.35;53.38;100520.80;1720558;83;21246;-54
2022/07/31 09:54:54;;;;;;;4.50;1.85;;;;;;;27.35;53.04;100520.80;1722621;83;21193;-55
2022/07/31 09:58:04;;;;;;;4.87;1.95;;;;;;;27.26;52.82;100515.47;1712932;83;21218;-54
2022/07/31 10:01:12;;;;;;;8.08;1.75;;;;;;;27.32;52.83;100510.70;1712012;83;21198;-54
2022/07/31 10:04:24;;;;;;;6.78;1.45;;;;;;;27.46;52.76;100524.47;1721699;83;21481;-54
2022/07/31 10:07:36;;;;;;;9.08;1.90;;;;;;;27.48;52.41;100518.82;1710411;83;21265;-54
2022/07/31 10:10:53;;;;;;;5.08;1.90;;;;;;;27.52;52.28;100519.95;1717452;82;21258;-55
2022/07/31 10:14:02;;;;;;;1.80;1.17;;;;;;;27.61;52.05;100513.17;1664339;84;21241;-53
2022/07/31 10:17:08;;;;;;;6.10;1.70;;;;;;;27.69;51.75;100506.97;1717034;83;21254;-53
2022/07/31 10:20:31;;;;;;;4.67;1.20;;;;;;;27.65;51.44;100511.49;1688013;85;21262;-55
2022/07/31 10:23:57;;;;;;;5.75;1.40;;;;;;;27.69;51.29;100509.23;1716196;83;21192;-56
2022/07/31 10:27:05;;;;;;;5.87;1.27;;;;;;;27.81;51.11;100504.11;1702726;83;21215;-53
2022/07/31 10:30:16;;;;;;;4.58;1.37;;;;;;;27.95;50.96;100504.95;1706215;83;21235;-55
2022/07/31 10:33:25;;;;;;;4.85;1.60;;;;;;;28.07;50.82;100495.64;1682859;85;21254;-55
2022/07/31 10:36:55;;;;;;;1.82;1.30;;;;;;;28.19;50.60;100490.50;1652920;87;21233;-54
2022/07/31 10:40:34;;;;;;;4.53;1.57;;;;;;;28.30;50.19;100488.77;1868871;76;22210;-53
2022/07/31 10:44:06;;;;;;;6.47;1.30;;;;;;;28.31;50.07;100490.99;1797147;79;21247;-54
2022/07/31 10:47:26;;;;;;;4.45;1.32;;;;;;;28.39;49.88;100491.24;1831058;78;21197;-53
2022/07/31 10:50:40;;;;;;;4.60;1.20;;;;;;;28.43;49.56;100492.33;1833927;77;21173;-54
2022/07/31 10:54:04;;;;;;;8.15;1.50;;;;;;;28.48;49.37;100487.30;1806904;77;21306;-53
2022/07/31 10:57:39;;;;;;;3.27;1.32;;;;;;;28.55;49.33;100475.97;1797133;79;21240;-54
2022/07/31 11:01:14;;;;;;;2.10;1.20;;;;;;;28.76;49.23;100463.98;1807061;79;21228;-54
2022/07/31 11:04:36;;;;;;;4.37;1.30;;;;;;;28.92;48.90;100468.38;1809609;79;21161;-55
2022/07/31 11:07:52;;;;;;;4.92;1.10;;;;;;;28.96;48.50;100457.62;1813276;79;21305;-55
2022/07/31 11:11:16;;;;;;;2.50;1.10;;;;;;;28.90;48.16;100457.39;1804105;79;21174;-54
2022/07/31 11:14:41;;;;;;;3.40;1.22;;;;;;;28.97;48.09;100462.70;1788939;79;21212;-55
2022/07/31 11:18:22;;;;;;;3.98;1.40;;;;;;;29.10;47.97;100459.20;1768949;81;21732;-55
2022/07/31 11:21:45;;;;;;;3.17;1.30;;;;;;;29.26;47.80;100454.30;1768921;81;21208;-54
2022/07/31 11:25:02;;;;;;;2.83;1.17;;;;;;;29.35;47.46;100449.12;1813375;78;21157;-54
2022/07/31 11:28:27;;;;;;;7.83;1.40;;;;;;;29.34;47.16;100451.65;1793141;79;21722;-55
2022/07/31 11:31:37;;;;;;;2.22;1.00;;;;;;;29.36;47.05;100448.53;1804382;79;21166;-55
2022/07/31 11:34:58;;;;;;;3.08;1.10;;;;;;;29.40;46.77;100449.63;1807910;78;21522;-54
2022/07/31 11:38:06;;;;;;;4.53;1.20;;;;;;;29.29;46.46;100437.59;1807655;78;21789;-54
2022/07/31 11:41:15;;;;;;;4.53;1.20;;;;;;;29.22;46.22;100439.94;1777183;79;21265;-54
2022/07/31 11:44:28;;;;;;;6.65;1.87;;;;;;;29.22;46.21;100442.16;1790006;79;21183;-54
2022/07/31 11:47:47;;;;;;;2.35;1.20;;;;;;;29.23;45.98;100433.14;1778451;80;21214;-54
2022/07/31 11:50:57;;;;;;;4.05;1.20;;;;;;;29.19;45.77;100437.71;1779588;79;21211;-55
2022/07/31 11:54:03;;;;;;;3.05;1.30;;;;;;;29.08;45.53;100435.53;1780676;79;21218;-53
2022/07/31 11:57:10;;;;;;;3.00;1.30;;;;;;;29.08;45.53;100435.53;1778880;79;21643;-53
2022/07/31 12:00:22;;;;;;;2.40;1.30;;;;;;;29.26;45.47;100428.31;1772509;80;21729;-55
2022/07/31 12:03:37;;;;;;;3.22;1.12;;;;;;;29.26;45.47;100428.31;1725942;83;21209;-55
2022/07/31 12:06:43;;;;;;;3.35;1.12;;;;;;;29.35;45.39;100423.73;1708831;83;21213;-53
2022/07/31 12:09:50;;;;;;;3.72;1.20;;;;;;;29.45;44.97;100434.06;1726184;83;21268;-53
2022/07/31 12:13:02;;;;;;;2.35;1.15;;;;;;;29.48;44.64;100428.64;1709179;83;21410;-54
2022/07/31 12:16:14;;;;;;;3.33;1.27;;;;;;;29.46;44.47;100427.27;1767670;81;21278;-55
2022/07/31 12:19:20;;;;;;;2.90;1.02;;;;;;;29.44;44.24;100422.48;1758461;80;21219;-54
2022/07/31 12:22:27;;;;;;;5.50;1.22;;;;;;;29.35;44.00;100420.91;1714790;83;21216;-54
2022/07/31 12:25:49;;;;;;;4.60;1.60;;;;;;;29.19;43.82;100430.66;1778552;80;21179;-55
2022/07/31 12:29:12;;;;;;;4.58;1.70;;;;;;;29.13;43.75;100424.77;1767731;80;21329;-54
2022/07/31 12:32:19;;;;;;;6.75;1.40;;;;;;;29.09;43.60;100425.11;1773754;79;21270;-54
2022/07/31 12:35:27;;;;;;;3.15;1.12;;;;;;;29.09;43.51;100426.52;1762102;79;21183;-54
2022/07/31 12:38:33;;;;;;;5.87;1.25;;;;;;;29.09;43.41;100410.45;1767710;80;21273;-53
2022/07/31 12:41:49;;;;;;;3.20;1.25;;;;;;;29.01;42.70;100412.47;1771352;79;21265;-54
2022/07/31 12:45:04;;;;;;;5.00;1.20;;;;;;;28.92;43.04;100411.99;1778844;80;21183;-55
2022/07/31 12:48:11;;;;;;;3.02;1.30;;;;;;;28.92;43.04;100411.99;1823116;78;21705;-52
2022/07/31 12:51:20;;;;;;;6.12;1.40;;;;;;;28.97;42.85;100404.91;1765380;81;21314;-53
2022/07/31 12:54:30;;;;;;;3.95;1.20;;;;;;;28.97;42.85;100404.91;1801112;79;21319;-53
2022/07/31 12:57:40;;;;;;;6.95;1.37;;;;;;;28.99;42.78;100411.06;1801661;79;21201;-54
2022/07/31 13:00:49;;;;;;;3.72;1.30;;;;;;;28.96;42.65;100413.06;1803466;78;21195;-55
2022/07/31 13:04:00;;;;;;;5.60;1.82;;;;;;;28.93;42.52;100408.88;1791969;80;21199;-53
2022/07/31 13:07:08;;;;;;;6.53;1.27;;;;;;;28.92;42.37;100399.31;1792286;80;21218;-54
2022/07/31 13:10:16;;;;;;;2.85;1.30;;;;;;;28.91;42.33;100399.86;1792439;80;21206;-55
2022/07/31 13:13:24;;;;;;;6.42;1.50;;;;;;;28.93;42.27;100393.37;1792429;80;21179;-53
2022/07/31 13:16:38;;;;;;;3.80;1.30;;;;;;;28.96;42.17;100392.77;1792628;80;21237;-55
2022/07/31 13:19:51;;;;;;;4.17;1.65;;;;;;;28.98;42.06;100376.97;1792223;78;21159;-55
2022/07/31 13:22:58;;;;;;;5.35;1.35;;;;;;;28.95;41.79;100378.42;1792668;80;21359;-54
2022/07/31 13:26:05;;;;;;;4.70;1.20;;;;;;;28.95;41.79;100378.42;1792744;80;21167;-54
2022/07/31 13:29:12;;;;;;;3.70;1.45;;;;;;;28.96;41.80;100380.09;1776232;79;21203;-54
2022/07/31 13:32:18;;;;;;;5.35;1.37;;;;;;;28.96;41.75;100376.42;1792597;80;21384;-54
2022/07/31 13:35:25;;;;;;;4.15;1.10;;;;;;;28.98;41.69;100381.20;1787445;80;21215;-53
2022/07/31 13:38:31;;;;;;;2.08;1.40;;;;;;;28.98;41.58;100375.00;1800037;79;21360;-54
2022/07/31 13:41:37;;;;;;;5.30;1.37;;;;;;;28.97;41.46;100376.12;1802363;78;21241;-55
2022/07/31 13:44:47;;;;;;;4.22;1.50;;;;;;;28.98;41.45;100375.56;1814939;78;21185;-54
2022/07/31 13:47:55;;;;;;;3.52;1.30;;;;;;;28.98;41.38;100369.92;1813088;79;21261;-53
2022/07/31 13:51:02;;;;;;;3.62;1.30;;;;;;;28.97;41.36;100364.84;1801817;79;21195;-55
2022/07/31 13:54:08;;;;;;;3.83;1.20;;;;;;;28.98;41.29;100367.11;1800843;79;21194;-55
2022/07/31 13:57:15;;;;;;;4.90;1.57;;;;;;;28.98;41.24;100357.23;1800498;79;21206;-56
2022/07/31 14:00:23;;;;;;;4.47;1.20;;;;;;;28.97;41.12;100355.56;1800879;79;21707;-56
2022/07/31 14:03:30;;;;;;;3.45;1.20;;;;;;;28.95;41.03;100353.05;1800989;79;21298;-55
2022/07/31 14:06:38;;;;;;;1.92;1.30;;;;;;;29.09;40.81;100348.98;1801178;79;21269;-55
2022/07/31 14:09:46;;;;;;;5.03;1.30;;;;;;;29.09;40.81;100348.98;1776815;79;21322;-55
2022/07/31 14:12:56;;;;;;;7.20;1.50;;;;;;;29.13;40.82;100342.99;1800974;79;21229;-55
2022/07/31 14:16:06;;;;;;;4.55;1.50;;;;;;;29.12;40.81;100340.77;1801030;79;21266;-54
2022/07/31 14:19:12;;;;;;;2.70;1.30;;;;;;;29.11;40.81;100337.66;1800537;79;21198;-56
2022/07/31 14:22:20;;;;;;;2.98;1.32;;;;;;;29.08;40.76;100341.08;1819193;76;21184;-55
2022/07/31 14:25:26;;;;;;;4.37;1.50;;;;;;;29.00;40.63;100330.41;1808928;79;21196;-54
2022/07/31 14:28:34;;;;;;;3.92;1.40;;;;;;;28.96;40.52;100330.75;1809422;79;21236;-53
2022/07/31 14:31:41;;;;;;;4.60;1.67;;;;;;;28.91;40.48;100327.12;1809489;79;21224;-55
2022/07/31 14:34:51;;;;;;;3.10;1.27;;;;;;;28.91;40.46;100320.94;1809922;79;21173;-53
2022/07/31 14:38:00;;;;;;;4.42;1.30;;;;;;;28.94;40.43;100315.26;1809246;79;21224;-53
2022/07/31 14:41:09;;;;;;;3.12;1.30;;;;;;;28.90;40.34;100309.96;1808663;79;21200;-57
2022/07/31 14:44:14;;;;;;;3.30;1.40;;;;;;;28.91;40.25;100314.45;1776197;78;21223;-55
2022/07/31 14:47:21;;;;;;;2.95;1.22;;;;;;;28.90;40.09;100312.78;1781217;79;21750;-54
2022/07/31 14:50:28;;;;;;;5.25;1.35;;;;;;;28.87;40.05;100310.55;1804221;79;21156;-55